Rocanville, Canada
Current Conditions -  °F | °C
As of 1:39 AM on Monday 22 Dec 2014 (Local Time) from CYQV Reporting Station
Haze Haze  
Wind Chill: 19°   Ceiling: 300
Heat Index: 25°   Visibility: 3mi
Dew Point: 25°   Wind: 5mph
Humidity: 100%   Direction: 80°E
Pressure: 29.51"   Gusts: NA
Location:  50.38°N, 101.7°W
Report Text: CYQV 220739Z AUTO 08004KT 030V100 3SM BR OVC003 M04/M04 A2951 RMK SLP022
Loading
Personal Weather Stations






























Interactive Weather Map New forecast layout! Learn more

10-Day Weather Forecast

Advertisements
Track Severe Weather on mobile